createdAt,value
2023-09-21T00:00:27.333Z,1003.42
2023-09-21T00:01:27.659Z,1003.43
2023-09-21T00:02:27.932Z,1003.44
2023-09-21T00:03:28.436Z,1003.44
2023-09-21T00:04:28.603Z,1003.43
2023-09-21T00:05:28.788Z,1003.41
2023-09-21T00:06:29.056Z,1003.43
2023-09-21T00:07:29.326Z,1003.48
2023-09-21T00:08:29.584Z,1003.45
2023-09-21T00:09:29.855Z,1003.43
2023-09-21T00:10:30.149Z,1003.43
2023-09-21T00:11:30.421Z,1003.43
2023-09-21T00:12:30.649Z,1003.34
2023-09-21T00:13:30.952Z,1003.35
2023-09-21T00:14:31.208Z,1003.34
2023-09-21T00:15:31.487Z,1003.34
2023-09-21T00:16:31.882Z,1003.34
2023-09-21T00:17:32.016Z,1003.34
2023-09-21T00:18:32.464Z,1003.39
2023-09-21T00:19:32.519Z,1003.30
2023-09-21T00:20:32.903Z,1003.30
2023-09-21T00:21:33.149Z,1003.25
2023-09-21T00:22:33.361Z,1003.26
2023-09-21T00:23:33.720Z,1003.27
2023-09-21T00:24:33.992Z,1003.21
2023-09-21T00:25:34.198Z,1003.14
2023-09-21T00:26:34.635Z,1003.20
2023-09-21T00:27:34.902Z,1003.21
2023-09-21T00:28:35.124Z,1003.17
2023-09-21T00:29:35.393Z,1003.15
2023-09-21T00:30:35.713Z,1003.15
2023-09-21T00:31:36.034Z,1003.16
2023-09-21T00:32:36.341Z,1003.18
2023-09-21T00:33:36.709Z,1003.13
2023-09-21T00:34:36.870Z,1003.19
2023-09-21T00:35:37.228Z,1003.16
2023-09-21T00:36:37.459Z,1003.08
2023-09-21T00:37:37.695Z,1003.12
2023-09-21T00:38:37.975Z,1003.10
2023-09-21T00:39:38.227Z,1003.05
2023-09-21T00:40:38.441Z,1003.10
2023-09-21T00:41:38.758Z,1003.10
2023-09-21T00:42:38.976Z,1003.14
2023-09-21T00:43:39.262Z,1003.12
2023-09-21T00:44:39.558Z,1003.16
2023-09-21T00:45:39.921Z,1003.10
2023-09-21T00:46:40.141Z,1003.11
2023-09-21T00:47:40.438Z,1003.13
2023-09-21T00:48:41.346Z,1003.07
2023-09-21T00:49:40.997Z,1003.15
2023-09-21T00:50:41.299Z,1003.08
2023-09-21T00:51:41.612Z,1003.01
2023-09-21T00:52:41.847Z,1003.01
2023-09-21T00:53:42.205Z,1003.04
2023-09-21T00:54:42.425Z,1003.07
2023-09-21T00:55:42.716Z,1003.09
2023-09-21T00:56:42.939Z,1003.13
2023-09-21T00:57:43.302Z,1003.04
2023-09-21T00:58:44.024Z,1003.10
2023-09-21T00:59:44.204Z,1003.08
2023-09-21T01:00:44.507Z,1003.04
2023-09-21T01:01:44.435Z,1003.06
2023-09-21T01:02:44.880Z,1003.02
2023-09-21T01:03:45.212Z,1003.03
2023-09-21T01:04:45.322Z,1003.05
2023-09-21T01:05:45.648Z,1003.04
2023-09-21T01:06:45.784Z,1003.01
2023-09-21T01:07:46.155Z,1003.02
2023-09-21T01:08:46.746Z,1003.00
2023-09-21T01:09:46.615Z,1003.00
2023-09-21T01:10:46.844Z,1002.99
2023-09-21T01:11:47.215Z,1002.97
2023-09-21T01:12:47.415Z,1002.99
2023-09-21T01:13:47.761Z,1003.01
2023-09-21T01:14:48.088Z,1002.98
2023-09-21T01:15:48.347Z,1002.97
2023-09-21T01:16:48.550Z,1002.99
2023-09-21T01:17:49.065Z,1002.98
2023-09-21T01:18:49.647Z,1002.91
2023-09-21T01:19:49.437Z,1002.90
2023-09-21T01:20:49.697Z,1002.94
2023-09-21T01:21:49.883Z,1002.93
2023-09-21T01:22:50.246Z,1002.95
2023-09-21T01:23:51.058Z,1002.89
2023-09-21T01:24:50.791Z,1002.97
2023-09-21T01:25:51.015Z,1002.94
2023-09-21T01:26:51.352Z,1002.91
2023-09-21T01:27:51.711Z,1002.92
2023-09-21T01:28:51.948Z,1002.88
2023-09-21T01:29:52.169Z,1002.88
2023-09-21T01:30:52.358Z,1002.84
2023-09-21T01:31:52.734Z,1002.82
2023-09-21T01:32:53.149Z,1002.81
2023-09-21T01:33:53.412Z,1002.83
2023-09-21T01:34:53.616Z,1002.79
2023-09-21T01:35:53.997Z,1002.77
2023-09-21T01:36:54.198Z,1002.77
2023-09-21T01:37:54.523Z,1002.77
2023-09-21T01:38:54.866Z,1002.73
2023-09-21T01:39:55.176Z,1002.75
2023-09-21T01:40:55.520Z,1002.70
2023-09-21T01:41:55.972Z,1002.66
2023-09-21T01:42:56.182Z,1002.69
2023-09-21T01:43:56.518Z,1002.71
2023-09-21T01:44:56.870Z,1002.78
2023-09-21T01:45:57.230Z,1002.72
2023-09-21T01:46:57.445Z,1002.70
2023-09-21T01:47:57.772Z,1002.70
2023-09-21T01:48:57.923Z,1002.68
2023-09-21T01:49:58.251Z,1002.65
2023-09-21T01:50:58.675Z,1002.64
2023-09-21T01:51:58.817Z,1002.62
2023-09-21T01:52:59.103Z,1002.61
2023-09-21T01:53:59.457Z,1002.63
2023-09-21T01:54:59.689Z,1002.59
2023-09-21T01:55:59.941Z,1002.57
2023-09-21T01:57:00.209Z,1002.63
2023-09-21T01:58:00.389Z,1002.62
2023-09-21T01:59:00.761Z,1002.60
2023-09-21T02:00:01.046Z,1002.61
2023-09-21T02:01:01.302Z,1002.57
2023-09-21T02:02:01.593Z,1002.49
2023-09-21T02:03:01.897Z,1002.51
2023-09-21T02:04:02.155Z,1002.46
2023-09-21T02:05:02.389Z,1002.48
2023-09-21T02:06:02.798Z,1002.47
2023-09-21T02:07:02.977Z,1002.46
2023-09-21T02:08:03.340Z,1002.46
2023-09-21T02:09:03.627Z,1002.46
2023-09-21T02:10:03.863Z,1002.48
2023-09-21T02:11:04.099Z,1002.40
2023-09-21T02:12:04.486Z,1002.40
2023-09-21T02:13:04.761Z,1002.36
2023-09-21T02:14:05.113Z,1002.40
2023-09-21T02:15:05.359Z,1002.41
2023-09-21T02:16:05.732Z,1002.41
2023-09-21T02:17:05.984Z,1002.37
2023-09-21T02:18:06.343Z,1002.42
2023-09-21T02:19:06.553Z,1002.43
2023-09-21T02:20:07.040Z,1002.40
2023-09-21T02:21:07.302Z,1002.38
2023-09-21T02:22:07.585Z,1002.41
2023-09-21T02:23:07.937Z,1002.45
2023-09-21T02:24:08.232Z,1002.42
2023-09-21T02:25:08.466Z,1002.45
2023-09-21T02:26:08.709Z,1002.46
2023-09-21T02:27:09.116Z,1002.43
2023-09-21T02:28:09.356Z,1002.44
2023-09-21T02:29:09.747Z,1002.38
2023-09-21T02:30:09.981Z,1002.32
2023-09-21T02:31:10.446Z,1002.28
2023-09-21T02:32:10.641Z,1002.30
2023-09-21T02:33:11.212Z,1002.33
2023-09-21T02:34:11.353Z,1002.31
2023-09-21T02:35:11.579Z,1002.33
2023-09-21T02:36:11.971Z,1002.30
2023-09-21T02:37:12.274Z,1002.31
2023-09-21T02:38:12.541Z,1002.30
2023-09-21T02:39:12.770Z,1002.31
2023-09-21T02:40:12.966Z,1002.29
2023-09-21T02:41:13.281Z,1002.27
2023-09-21T02:42:13.565Z,1002.31
2023-09-21T02:43:13.919Z,1002.23
2023-09-21T02:44:14.133Z,1002.29
2023-09-21T02:45:14.594Z,1002.24
2023-09-21T02:46:14.906Z,1002.27
2023-09-21T02:47:15.114Z,1002.27
2023-09-21T02:48:15.576Z,1002.25
2023-09-21T02:49:15.780Z,1002.28
2023-09-21T02:50:15.961Z,1002.18
2023-09-21T02:51:16.348Z,1002.18
2023-09-21T02:52:16.598Z,1002.21
2023-09-21T02:53:16.881Z,1002.16
2023-09-21T02:54:17.088Z,1002.19
2023-09-21T02:55:17.403Z,1002.19
2023-09-21T02:56:17.784Z,1002.16
2023-09-21T02:57:18.072Z,1002.08
2023-09-21T02:58:18.243Z,1002.14
2023-09-21T02:59:18.552Z,1002.10
2023-09-21T03:00:18.949Z,1002.10
2023-09-21T03:01:19.180Z,1002.12
2023-09-21T03:02:19.521Z,1002.08
2023-09-21T03:03:19.828Z,1002.05
2023-09-21T03:04:20.021Z,1002.04
2023-09-21T03:05:20.337Z,1002.02
2023-09-21T03:06:20.751Z,1002.03
2023-09-21T03:07:20.975Z,1002.00
2023-09-21T03:08:21.193Z,1001.98
2023-09-21T03:09:21.590Z,1001.93
2023-09-21T03:10:21.846Z,1001.95
2023-09-21T03:11:22.117Z,1001.92
2023-09-21T03:12:22.379Z,1001.98
2023-09-21T03:13:22.702Z,1002.03
2023-09-21T03:14:22.892Z,1001.98
2023-09-21T03:15:23.156Z,1002.01
2023-09-21T03:16:23.481Z,1001.97
2023-09-21T03:17:23.868Z,1001.98
2023-09-21T03:18:24.033Z,1001.94
2023-09-21T03:19:24.225Z,1002.00
2023-09-21T03:20:24.586Z,1002.02
2023-09-21T03:21:25.360Z,1001.95
2023-09-21T03:22:25.305Z,1002.00
2023-09-21T03:23:25.661Z,1001.99
2023-09-21T03:24:25.858Z,1001.98
2023-09-21T03:25:26.238Z,1001.95
2023-09-21T03:26:26.424Z,1001.90
2023-09-21T03:27:26.819Z,1001.92
2023-09-21T03:28:27.389Z,1001.85
2023-09-21T03:29:27.294Z,1001.92
2023-09-21T03:30:27.584Z,1001.86
2023-09-21T03:31:27.880Z,1001.92
2023-09-21T03:32:28.190Z,1001.90
2023-09-21T03:33:28.601Z,1001.89
2023-09-21T03:34:28.755Z,1001.92
2023-09-21T03:35:29.105Z,1001.91
2023-09-21T03:36:29.280Z,1001.89
2023-09-21T03:37:29.631Z,1001.89
2023-09-21T03:38:29.895Z,1001.88
2023-09-21T03:39:30.171Z,1001.83
2023-09-21T03:40:30.410Z,1001.79
2023-09-21T03:41:30.662Z,1001.83
2023-09-21T03:42:31.118Z,1001.82
2023-09-21T03:43:31.368Z,1001.87
2023-09-21T03:44:31.659Z,1001.77
2023-09-21T03:45:31.960Z,1001.83
2023-09-21T03:46:32.306Z,1001.84
2023-09-21T03:47:32.535Z,1001.76
2023-09-21T03:48:32.892Z,1001.74
2023-09-21T03:49:33.133Z,1001.87
2023-09-21T03:50:33.396Z,1001.81
2023-09-21T03:51:33.705Z,1001.74
2023-09-21T03:52:33.895Z,1001.71
2023-09-21T03:53:34.253Z,1001.74
2023-09-21T03:54:34.463Z,1001.75
2023-09-21T03:55:34.814Z,1001.71
2023-09-21T03:56:35.199Z,1001.67
2023-09-21T03:57:35.416Z,1001.76
2023-09-21T03:58:35.799Z,1001.68
2023-09-21T03:59:35.997Z,1001.65
2023-09-21T04:00:36.372Z,1001.64
2023-09-21T04:01:36.625Z,1001.67
2023-09-21T04:02:36.879Z,1001.57
2023-09-21T04:03:37.357Z,1001.58
2023-09-21T04:04:37.584Z,1001.72
2023-09-21T04:05:37.887Z,1001.64
2023-09-21T04:06:38.071Z,1001.66
2023-09-21T04:07:38.815Z,1001.67
2023-09-21T04:08:39.086Z,1001.66
2023-09-21T04:09:38.914Z,1001.61
2023-09-21T04:10:39.341Z,1001.64
2023-09-21T04:11:39.518Z,1001.57
2023-09-21T04:12:39.923Z,1001.53
2023-09-21T04:13:40.074Z,1001.60
2023-09-21T04:14:40.322Z,1001.51
2023-09-21T04:15:40.816Z,1001.52
2023-09-21T04:16:40.970Z,1001.51
2023-09-21T04:17:41.284Z,1001.48
2023-09-21T04:18:41.760Z,1001.46
2023-09-21T04:19:41.821Z,1001.48
2023-09-21T04:20:42.598Z,1001.48
2023-09-21T04:21:42.572Z,1001.47
2023-09-21T04:22:42.688Z,1001.46
2023-09-21T04:23:43.672Z,1001.50
2023-09-21T04:24:43.326Z,1001.47
2023-09-21T04:25:43.532Z,1001.48
2023-09-21T04:26:43.898Z,1001.40
2023-09-21T04:27:44.205Z,1001.46
2023-09-21T04:28:44.781Z,1001.40
2023-09-21T04:29:44.806Z,1001.38
2023-09-21T04:30:45.214Z,1001.43
2023-09-21T04:31:45.508Z,1001.42
2023-09-21T04:32:45.841Z,1001.40
2023-09-21T04:33:46.090Z,1001.43
2023-09-21T04:34:46.396Z,1001.37
2023-09-21T04:35:46.777Z,1001.37
2023-09-21T04:36:46.997Z,1001.38
2023-09-21T04:37:47.364Z,1001.39
2023-09-21T04:38:47.635Z,1001.44
2023-09-21T04:39:47.846Z,1001.43
2023-09-21T04:40:48.227Z,1001.46
2023-09-21T04:41:48.516Z,1001.42
2023-09-21T04:42:48.754Z,1001.47
2023-09-21T04:43:48.929Z,1001.40
2023-09-21T04:44:49.326Z,1001.42
2023-09-21T04:45:49.636Z,1001.42
2023-09-21T04:46:49.826Z,1001.40
2023-09-21T04:47:50.441Z,1001.38
2023-09-21T04:48:50.530Z,1001.38
2023-09-21T04:49:50.783Z,1001.29
2023-09-21T04:50:51.041Z,1001.36
2023-09-21T04:51:51.227Z,1001.35
2023-09-21T04:52:51.621Z,1001.28
2023-09-21T04:53:51.835Z,1001.36
2023-09-21T04:54:52.192Z,1001.32
2023-09-21T04:55:52.415Z,1001.33
2023-09-21T04:56:52.822Z,1001.41
2023-09-21T04:57:53.056Z,1001.42
2023-09-21T04:58:53.286Z,1001.40
2023-09-21T04:59:53.670Z,1001.42
2023-09-21T05:00:53.907Z,1001.44
2023-09-21T05:01:54.177Z,1001.45
2023-09-21T05:02:54.561Z,1001.48
2023-09-21T05:03:54.761Z,1001.44
2023-09-21T05:04:55.057Z,1001.43
2023-09-21T05:05:55.352Z,1001.40
2023-09-21T05:06:55.566Z,1001.45
2023-09-21T05:07:56.896Z,1001.44
2023-09-21T05:08:56.226Z,1001.47
2023-09-21T05:09:56.471Z,1001.43
2023-09-21T05:10:56.732Z,1001.40
2023-09-21T05:11:57.031Z,1001.45
2023-09-21T05:12:57.214Z,1001.39
2023-09-21T05:13:57.588Z,1001.40
2023-09-21T05:14:57.840Z,1001.43
2023-09-21T05:15:58.248Z,1001.40
2023-09-21T05:16:58.425Z,1001.44
2023-09-21T05:17:58.977Z,1001.42
2023-09-21T05:18:59.126Z,1001.31
2023-09-21T05:19:59.354Z,1001.37
2023-09-21T05:20:59.679Z,1001.34
2023-09-21T05:21:59.938Z,1001.34
2023-09-21T05:23:00.250Z,1001.34
2023-09-21T05:24:00.600Z,1001.39
2023-09-21T05:25:00.883Z,1001.35
2023-09-21T05:26:01.149Z,1001.32
2023-09-21T05:27:01.512Z,1001.42
2023-09-21T05:28:01.793Z,1001.38
2023-09-21T05:29:02.116Z,1001.41
2023-09-21T05:30:07.208Z,1001.35
2023-09-21T05:31:02.710Z,1001.38
2023-09-21T05:32:02.958Z,1001.33
2023-09-21T05:33:03.404Z,1001.36
2023-09-21T05:34:03.850Z,1001.40
2023-09-21T05:35:03.960Z,1001.36
2023-09-21T05:36:04.086Z,1001.37
2023-09-21T05:37:06.323Z,1001.38
2023-09-21T05:38:04.650Z,1001.34
2023-09-21T05:39:04.967Z,1001.30
2023-09-21T05:40:05.163Z,1001.37
2023-09-21T05:41:05.403Z,1001.34
2023-09-21T05:42:05.713Z,1001.33
2023-09-21T05:43:05.989Z,1001.34
2023-09-21T05:44:06.202Z,1001.34
2023-09-21T05:45:06.457Z,1001.32
2023-09-21T05:46:06.747Z,1001.31
2023-09-21T05:47:07.019Z,1001.34
2023-09-21T05:48:07.325Z,1001.32
2023-09-21T05:49:07.576Z,1001.35
2023-09-21T05:50:07.952Z,1001.38
2023-09-21T05:51:08.469Z,1001.32
2023-09-21T05:52:08.434Z,1001.33
2023-09-21T05:53:08.709Z,1001.37
2023-09-21T05:54:08.983Z,1001.34
2023-09-21T05:55:09.211Z,1001.38
2023-09-21T05:56:09.480Z,1001.41
2023-09-21T05:57:09.748Z,1001.34
2023-09-21T05:58:09.982Z,1001.33
2023-09-21T05:59:10.198Z,1001.34
2023-09-21T06:00:10.482Z,1001.32
2023-09-21T06:01:10.800Z,1001.31
2023-09-21T06:02:11.053Z,1001.38
2023-09-21T06:03:11.403Z,1001.39
2023-09-21T06:04:11.644Z,1001.28
2023-09-21T06:05:11.779Z,1001.34
2023-09-21T06:06:12.067Z,1001.23
2023-09-21T06:07:12.318Z,1001.23
2023-09-21T06:08:12.581Z,1001.27
2023-09-21T06:09:12.845Z,1001.20
2023-09-21T06:10:13.106Z,1001.20
2023-09-21T06:11:13.370Z,1001.18
2023-09-21T06:12:13.657Z,1001.14
2023-09-21T06:13:13.831Z,1001.15
2023-09-21T06:14:14.136Z,1001.16
2023-09-21T06:15:14.432Z,1001.08
2023-09-21T06:16:14.650Z,1001.14
2023-09-21T06:17:15.226Z,1001.07
2023-09-21T06:18:15.192Z,1001.13
2023-09-21T06:19:17.823Z,1001.06
2023-09-21T06:20:15.796Z,1001.11
2023-09-21T06:21:16.040Z,1001.15
2023-09-21T06:22:16.377Z,1001.14
2023-09-21T06:23:16.740Z,1001.14
2023-09-21T06:24:17.034Z,1001.15
2023-09-21T06:25:17.242Z,1001.18
2023-09-21T06:26:17.481Z,1001.14
2023-09-21T06:27:17.755Z,1001.23
2023-09-21T06:28:18.041Z,1001.14
2023-09-21T06:29:18.309Z,1001.19
2023-09-21T06:30:18.592Z,1001.12
2023-09-21T06:31:18.833Z,1001.14
2023-09-21T06:32:19.131Z,1001.11
2023-09-21T06:33:19.409Z,1001.13
2023-09-21T06:34:19.674Z,1001.14
2023-09-21T06:35:19.907Z,1001.15
2023-09-21T06:36:20.188Z,1001.20
2023-09-21T06:37:20.365Z,1001.13
2023-09-21T06:38:20.739Z,1001.22
2023-09-21T06:39:21.007Z,1001.17
2023-09-21T06:40:21.213Z,1001.11
2023-09-21T06:41:21.429Z,1001.15
2023-09-21T06:42:21.724Z,1001.20
2023-09-21T06:43:22.042Z,1001.21
2023-09-21T06:44:22.249Z,1001.13
2023-09-21T06:45:22.516Z,1001.16
2023-09-21T06:46:22.749Z,1001.10
2023-09-21T06:47:22.997Z,1001.05
2023-09-21T06:48:23.370Z,1001.13
2023-09-21T06:49:23.482Z,1001.05
2023-09-21T06:50:23.783Z,1001.01
2023-09-21T06:51:24.048Z,1001.04
2023-09-21T06:52:24.286Z,1001.05
2023-09-21T06:53:24.567Z,1001.06
2023-09-21T06:54:24.850Z,1001.06
2023-09-21T06:55:25.070Z,1001.07
2023-09-21T06:56:25.293Z,1001.07
2023-09-21T06:57:25.766Z,1001.07
2023-09-21T06:58:25.900Z,1001.10
2023-09-21T06:59:26.130Z,1001.11
2023-09-21T07:00:26.531Z,1001.03
2023-09-21T07:01:26.713Z,1001.03
2023-09-21T07:02:27.058Z,1001.09
2023-09-21T07:03:27.368Z,1001.07
2023-09-21T07:04:27.585Z,1001.04
2023-09-21T07:05:27.745Z,1001.06
2023-09-21T07:06:28.160Z,1001.03
2023-09-21T07:07:28.361Z,1001.02
2023-09-21T07:08:28.620Z,1001.03
2023-09-21T07:09:28.906Z,1000.99
2023-09-21T07:10:29.118Z,1001.01
2023-09-21T07:11:29.533Z,1001.02
2023-09-21T07:12:29.819Z,1001.00
2023-09-21T07:13:30.032Z,1001.00
2023-09-21T07:14:30.281Z,1000.98
2023-09-21T07:15:30.658Z,1001.01
2023-09-21T07:16:30.933Z,1001.01
2023-09-21T07:17:31.234Z,1001.01
2023-09-21T07:18:31.537Z,1001.03
2023-09-21T07:19:31.755Z,1001.05
2023-09-21T07:20:32.141Z,1001.04
2023-09-21T07:21:32.403Z,1001.04
2023-09-21T07:22:32.622Z,1001.03
2023-09-21T07:23:32.876Z,1001.09
2023-09-21T07:24:33.328Z,1001.11
2023-09-21T07:25:33.497Z,1001.09
2023-09-21T07:26:33.718Z,1001.07
2023-09-21T07:27:33.987Z,1001.13
2023-09-21T07:28:34.216Z,1001.13
2023-09-21T07:29:34.453Z,1001.13
2023-09-21T07:30:34.863Z,1001.17
2023-09-21T07:31:34.951Z,1001.19
2023-09-21T07:32:35.192Z,1001.10
2023-09-21T07:33:35.592Z,1001.06
2023-09-21T07:34:35.885Z,1001.03
2023-09-21T07:35:36.110Z,1001.05
2023-09-21T07:36:36.371Z,1001.11
2023-09-21T07:37:36.582Z,1001.10
2023-09-21T07:38:36.873Z,1001.06
2023-09-21T07:39:37.143Z,1001.05
2023-09-21T07:40:37.449Z,1001.09
2023-09-21T07:41:37.685Z,1001.01
2023-09-21T07:42:37.909Z,1001.02
2023-09-21T07:43:38.321Z,1001.03
2023-09-21T07:44:38.535Z,1001.04
2023-09-21T07:45:38.791Z,1001.07
2023-09-21T07:46:39.055Z,1001.03
2023-09-21T07:47:39.297Z,1001.05
2023-09-21T07:48:39.603Z,1001.03
2023-09-21T07:49:39.849Z,1001.02
2023-09-21T07:50:40.092Z,1001.01
2023-09-21T07:51:40.349Z,1000.99
2023-09-21T07:52:40.603Z,1000.98
2023-09-21T07:53:41.544Z,1001.04
2023-09-21T07:54:41.148Z,1000.97
2023-09-21T07:55:41.347Z,1001.00
2023-09-21T07:56:41.727Z,1000.99
2023-09-21T07:57:42.055Z,1000.97
2023-09-21T07:58:42.537Z,1000.98
2023-09-21T07:59:42.630Z,1000.99
2023-09-21T08:00:42.839Z,1000.97
2023-09-21T08:01:43.081Z,1000.99
2023-09-21T08:02:43.389Z,1000.99
2023-09-21T08:03:43.911Z,1000.91
2023-09-21T08:04:44.158Z,1000.91
2023-09-21T08:05:44.455Z,1000.93
2023-09-21T08:06:44.556Z,1000.93
2023-09-21T08:07:44.832Z,1000.97
2023-09-21T08:08:45.114Z,1000.95
2023-09-21T08:09:45.401Z,1000.91
2023-09-21T08:10:45.610Z,1000.88
2023-09-21T08:11:45.863Z,1000.89
2023-09-21T08:12:46.118Z,1000.88
2023-09-21T08:13:46.366Z,1000.86
2023-09-21T08:14:46.609Z,1000.89
2023-09-21T08:15:46.845Z,1000.87
2023-09-21T08:16:47.145Z,1000.88
2023-09-21T08:17:47.355Z,1000.84
2023-09-21T08:18:47.636Z,1000.88
2023-09-21T08:19:47.876Z,1000.85
2023-09-21T08:20:48.180Z,1000.85
2023-09-21T08:21:48.452Z,1000.78
2023-09-21T08:22:48.707Z,1000.83
2023-09-21T08:23:48.972Z,1000.78
2023-09-21T08:24:49.165Z,1000.83
2023-09-21T08:25:49.522Z,1000.78
2023-09-21T08:26:50.083Z,1000.81
2023-09-21T08:27:50.090Z,1000.71
2023-09-21T08:28:50.333Z,1000.76
2023-09-21T08:29:50.595Z,1000.73
2023-09-21T08:30:50.990Z,1000.70
2023-09-21T08:31:51.571Z,1000.75
2023-09-21T08:32:51.422Z,1000.73
2023-09-21T08:33:51.723Z,1000.71
2023-09-21T08:34:51.968Z,1000.73
2023-09-21T08:35:52.276Z,1000.70
2023-09-21T08:36:52.479Z,1000.72
2023-09-21T08:37:52.714Z,1000.72
2023-09-21T08:38:53.017Z,1000.75
2023-09-21T08:39:53.430Z,1000.74
2023-09-21T08:40:53.499Z,1000.71
2023-09-21T08:41:53.775Z,1000.73
2023-09-21T08:42:54.040Z,1000.69
2023-09-21T08:43:54.282Z,1000.63
2023-09-21T08:44:54.577Z,1000.64
2023-09-21T08:45:54.875Z,1000.62
2023-09-21T08:46:55.146Z,1000.62
2023-09-21T08:47:55.581Z,1000.57
2023-09-21T08:48:55.783Z,1000.58
2023-09-21T08:49:56.017Z,1000.54
2023-09-21T08:50:56.345Z,1000.54
2023-09-21T08:51:56.560Z,1000.60
2023-09-21T08:52:56.794Z,1000.57
2023-09-21T08:53:57.094Z,1000.60
2023-09-21T08:54:57.334Z,1000.52
2023-09-21T08:55:57.572Z,1000.58
2023-09-21T08:56:57.817Z,1000.58
2023-09-21T08:57:58.045Z,1000.55
2023-09-21T08:58:58.329Z,1000.58
2023-09-21T08:59:58.751Z,1000.56
2023-09-21T09:00:58.853Z,1000.63
2023-09-21T09:01:59.075Z,1000.58
2023-09-21T09:02:59.505Z,1000.48
2023-09-21T09:04:00.040Z,1000.44
2023-09-21T09:04:59.942Z,1000.47
2023-09-21T09:06:00.249Z,1000.48
2023-09-21T09:07:00.486Z,1000.49
2023-09-21T09:08:00.846Z,1000.45
2023-09-21T09:09:01.222Z,1000.46
2023-09-21T09:10:01.362Z,1000.44
2023-09-21T09:11:01.589Z,1000.44
2023-09-21T09:12:01.846Z,1000.49
2023-09-21T09:13:02.118Z,1000.44
2023-09-21T09:14:02.369Z,1000.41
2023-09-21T09:15:02.659Z,1000.43
2023-09-21T09:16:02.916Z,1000.43
2023-09-21T09:17:03.131Z,1000.41
2023-09-21T09:18:03.543Z,1000.37
2023-09-21T09:19:03.673Z,1000.37
2023-09-21T09:20:03.951Z,1000.34
2023-09-21T09:21:04.226Z,1000.27
2023-09-21T09:22:04.468Z,1000.32
2023-09-21T09:23:04.743Z,1000.34
2023-09-21T09:24:05.018Z,1000.36
2023-09-21T09:25:05.214Z,1000.32
2023-09-21T09:26:05.479Z,1000.32
2023-09-21T09:27:05.816Z,1000.32
2023-09-21T09:28:06.047Z,1000.31
2023-09-21T09:29:06.300Z,1000.26
2023-09-21T09:30:06.550Z,1000.27
2023-09-21T09:31:06.801Z,1000.28
2023-09-21T09:32:07.131Z,1000.27
2023-09-21T09:33:07.388Z,1000.29
2023-09-21T09:34:07.712Z,1000.25
2023-09-21T09:35:07.953Z,1000.31
2023-09-21T09:36:08.237Z,1000.34
2023-09-21T09:37:08.477Z,1000.31
2023-09-21T09:38:08.729Z,1000.31
2023-09-21T09:39:09.066Z,1000.26
2023-09-21T09:40:09.317Z,1000.33
2023-09-21T09:41:09.567Z,1000.28
2023-09-21T09:42:09.895Z,1000.23
2023-09-21T09:43:10.294Z,1000.17
2023-09-21T09:44:10.460Z,1000.19
2023-09-21T09:45:10.730Z,1000.22
2023-09-21T09:46:11.002Z,1000.22
2023-09-21T09:47:11.204Z,1000.20
2023-09-21T09:48:11.532Z,1000.20
2023-09-21T09:49:11.848Z,1000.17
2023-09-21T09:50:12.116Z,1000.15
2023-09-21T09:51:12.286Z,1000.11
2023-09-21T09:52:12.575Z,1000.17
2023-09-21T09:53:12.818Z,1000.15
2023-09-21T09:54:13.039Z,1000.14
2023-09-21T09:55:13.802Z,1000.04
2023-09-21T09:56:13.596Z,1000.05
2023-09-21T09:57:13.895Z,999.95
2023-09-21T09:58:16.606Z,999.98
2023-09-21T09:59:14.385Z,999.99
2023-09-21T10:00:14.721Z,999.96
2023-09-21T10:01:15.001Z,999.99
2023-09-21T10:02:15.316Z,999.99
2023-09-21T10:03:15.749Z,999.93
2023-09-21T10:04:15.969Z,999.87
2023-09-21T10:05:16.297Z,999.88
2023-09-21T10:06:16.581Z,999.93
2023-09-21T10:07:16.777Z,999.91
2023-09-21T10:08:17.008Z,999.87
2023-09-21T10:09:17.386Z,999.91
2023-09-21T10:10:17.653Z,999.86
2023-09-21T10:11:17.911Z,999.85
2023-09-21T10:12:18.143Z,999.84
2023-09-21T10:13:18.403Z,999.84
2023-09-21T10:14:18.663Z,999.82
2023-09-21T10:15:18.973Z,999.78
2023-09-21T10:16:19.268Z,999.77
2023-09-21T10:17:19.538Z,999.76
2023-09-21T10:18:19.847Z,999.72
2023-09-21T10:19:20.136Z,999.78
2023-09-21T10:20:20.376Z,999.76
2023-09-21T10:21:20.612Z,999.72
2023-09-21T10:22:20.992Z,999.73
2023-09-21T10:23:21.229Z,999.75
2023-09-21T10:24:21.563Z,999.84
2023-09-21T10:25:21.762Z,999.79
2023-09-21T10:26:22.023Z,999.77
2023-09-21T10:27:22.291Z,999.68
2023-09-21T10:28:22.520Z,999.77
2023-09-21T10:29:22.759Z,999.78
2023-09-21T10:30:23.126Z,999.68
2023-09-21T10:31:23.407Z,999.74
2023-09-21T10:32:23.631Z,999.71
2023-09-21T10:33:23.994Z,999.67
2023-09-21T10:34:24.168Z,999.72
2023-09-21T10:35:24.381Z,999.65
2023-09-21T10:36:24.936Z,999.66
2023-09-21T10:37:24.994Z,999.73
2023-09-21T10:38:25.272Z,999.65
2023-09-21T10:39:25.637Z,999.65
2023-09-21T10:40:25.844Z,999.59
2023-09-21T10:41:26.094Z,999.64
2023-09-21T10:42:26.417Z,999.61
2023-09-21T10:43:26.652Z,999.57
2023-09-21T10:44:26.872Z,999.60
2023-09-21T10:45:27.272Z,999.53
2023-09-21T10:46:27.509Z,999.60
2023-09-21T10:47:27.735Z,999.57
2023-09-21T10:48:28.037Z,999.59
2023-09-21T10:49:28.307Z,999.57
2023-09-21T10:50:28.532Z,999.52
2023-09-21T10:51:28.828Z,999.47
2023-09-21T10:52:29.118Z,999.47
2023-09-21T10:53:29.332Z,999.50
2023-09-21T10:54:29.623Z,999.48
2023-09-21T10:55:29.834Z,999.49
2023-09-21T10:56:30.109Z,999.44
2023-09-21T10:57:30.507Z,999.37
2023-09-21T10:58:30.659Z,999.37
2023-09-21T10:59:30.897Z,999.39
2023-09-21T11:00:31.158Z,999.37
2023-09-21T11:01:31.487Z,999.37
2023-09-21T11:02:31.627Z,999.37
2023-09-21T11:03:31.908Z,999.32
2023-09-21T11:04:32.157Z,999.30
2023-09-21T11:05:32.477Z,999.32
2023-09-21T11:06:32.779Z,999.30
2023-09-21T11:07:33.044Z,999.23
2023-09-21T11:08:33.252Z,999.27
2023-09-21T11:09:33.571Z,999.30
2023-09-21T11:10:42.942Z,999.29
2023-09-21T11:11:34.043Z,999.25
2023-09-21T11:12:34.413Z,999.30
2023-09-21T11:13:34.658Z,999.29
2023-09-21T11:14:34.916Z,999.26
2023-09-21T11:15:35.310Z,999.24
2023-09-21T11:16:35.672Z,999.23
2023-09-21T11:17:35.995Z,999.23
2023-09-21T11:18:36.309Z,999.28
2023-09-21T11:19:36.496Z,999.21
2023-09-21T11:20:36.745Z,999.24
2023-09-21T11:21:37.188Z,999.24
2023-09-21T11:22:37.251Z,999.22
2023-09-21T11:23:37.576Z,999.25
2023-09-21T11:24:37.873Z,999.24
2023-09-21T11:25:38.016Z,999.20
2023-09-21T11:26:38.254Z,999.23
2023-09-21T11:27:38.492Z,999.25
2023-09-21T11:28:38.809Z,999.16
2023-09-21T11:29:39.055Z,999.19
2023-09-21T11:30:39.391Z,999.12
2023-09-21T11:31:39.682Z,999.12
2023-09-21T11:32:39.953Z,999.06
2023-09-21T11:33:40.232Z,999.07
2023-09-21T11:34:40.460Z,999.04
2023-09-21T11:35:40.670Z,999.05
2023-09-21T11:36:41.019Z,999.02
2023-09-21T11:37:41.363Z,998.98
2023-09-21T11:38:41.836Z,998.99
2023-09-21T11:39:41.822Z,998.98
2023-09-21T11:40:42.209Z,998.89
2023-09-21T11:41:42.405Z,998.91
2023-09-21T11:42:42.809Z,998.87
2023-09-21T11:43:43.081Z,998.85
2023-09-21T11:44:43.312Z,998.84
2023-09-21T11:45:43.698Z,998.89
2023-09-21T11:46:44.184Z,998.87
2023-09-21T11:47:44.281Z,998.86
2023-09-21T11:48:47.742Z,998.85
2023-09-21T11:49:44.919Z,998.81
2023-09-21T11:50:45.146Z,998.82
2023-09-21T11:51:45.451Z,998.84
2023-09-21T11:52:45.717Z,998.81
2023-09-21T11:53:46.080Z,998.77
2023-09-21T11:54:46.428Z,998.80
2023-09-21T11:55:46.560Z,998.82
2023-09-21T11:56:46.829Z,998.80
2023-09-21T11:57:47.029Z,998.76
2023-09-21T11:58:47.261Z,998.75
2023-09-21T11:59:47.479Z,998.74
2023-09-21T12:00:51.835Z,998.74
2023-09-21T12:01:48.081Z,998.72
2023-09-21T12:02:48.677Z,998.66
2023-09-21T12:03:48.825Z,998.70
2023-09-21T12:04:49.119Z,998.72
2023-09-21T12:05:49.339Z,998.66
2023-09-21T12:06:49.683Z,998.66
2023-09-21T12:07:49.943Z,998.68
2023-09-21T12:08:50.183Z,998.63
2023-09-21T12:09:50.420Z,998.67
2023-09-21T12:10:50.643Z,998.64
2023-09-21T12:11:51.034Z,998.64
2023-09-21T12:12:51.264Z,998.57